Flight Track Log - Related Links

Times and Time Zones

All times are in EDT time to prevent confusion due to time zone crossing. See the N6792M flight status page for this flight to view local times or setup timezone preferences in your user account.

Time Position Orientation Groundspeed Altitude Reporting Facility
EDT Latitude Longitude Course Direction KTS MPH feet Rate Location/Type
Sat 11:38:54 AM 45.1600 -89.0597 90° East 85 98 3,000  Level Minneapolis Center
Sat 11:39:56 AM 45.1606 -89.0203 89° East 99 114 3,900 871 Climbing Minneapolis Center
Sat 11:40:58 AM 45.1592 -88.9800 93° East 101 116 4,800 532 Climbing Minneapolis Center
Sat 11:42:00 AM 45.1603 -88.9383 88° East 102 117 5,000 97 Climbing Minneapolis Center
Sat 11:43:02 AM 45.1603 -88.8842 90° East 116 133 5,000 48 Level Minneapolis Center
Sat 11:44:00 AM 45.1526 -88.8013 90° East  Level FlightAware Approximate
Sat 11:44:04 AM 45.1597 -88.8181 91° East 130 150 5,100  Level Minneapolis Center
Sat 11:45:06 AM 45.1594 -88.7606 90° East 137 158 5,100  Level Minneapolis Center
Sat 11:46:08 AM 45.1581 -88.7044 92° East 141 162 5,100 -48 Level Minneapolis Center
Sat 11:47:10 AM 45.1572 -88.6481 91° East 142 163 5,000 -49 Descending Minneapolis Center
Sat 11:48:11 AM 45.1547 -88.5922 94° East 143 165 5,000  Level Minneapolis Center
Sat 11:49:13 AM 45.1531 -88.5381 92° East 141 162 5,000  Level Minneapolis Center
Sat 11:50:15 AM 45.1525 -88.4822 91° East 138 159 5,000 48 Level Minneapolis Center
Sat 11:51:17 AM 45.1500 -88.4264 94° East 140 161 5,100 48 Climbing Minneapolis Center
Sat 11:52:19 AM 45.1478 -88.3586 93° East 144 166 5,100  Level Minneapolis Center
Sat 11:53:21 AM 45.1483 -88.3031 89° East 143 165 5,100 48 Level Minneapolis Center
Sat 11:54:23 AM 45.1478 -88.2481 91° East 141 162 5,200  Climbing Minneapolis Center
Sat 11:55:25 AM 45.1492 -88.1922 88° East 141 162 5,100 -97 Descending Minneapolis Center
Sat 11:56:27 AM 45.1483 -88.1336 91° East 148 170 5,000  Descending Minneapolis Center
Sat 11:57:29 AM 45.1478 -88.0769 91° East 146 168 5,100 48 Climbing Minneapolis Center
Sat 11:58:31 AM 45.1469 -88.0111 91° East 141 162 5,100  Level Minneapolis Center
Sat 11:59:35 AM 45.1450 -87.9542 93° East 143 165 5,100  Level Minneapolis Center
Sat 12:00:37 PM 45.1453 -87.8961 90° East 146 168 5,100  Level Minneapolis Center
Sat 12:01:39 PM 45.1436 -87.8400 92° East 145 167 5,100  Level Minneapolis Center
Sat 12:02:41 PM 45.1444 -87.7833 89° East 144 166 5,100 48 Level Minneapolis Center
Sat 12:03:43 PM 45.1439 -87.7156 91° East 143 165 5,200 -97 Climbing Minneapolis Center
Sat 12:04:45 PM 45.1428 -87.6578 92° East 145 167 4,900 -435 Descending Minneapolis Center
Sat 12:05:47 PM 45.1403 -87.5972 93° East 150 173 4,300 -484 Descending Minneapolis Center
Sat 12:06:49 PM 45.1400 -87.5356 90° East 153 176 3,900 -339 Descending Minneapolis Center
Sat 12:07:51 PM 45.1389 -87.4775 92° East 152 175 3,600 -339 Descending Minneapolis Center
Sat 12:08:53 PM 45.1378 -87.4217 92° East 148 170 3,200 -244 Descending Minneapolis Center
Sat 12:09:54 PM 45.1361 -87.3553 92° East 143 165 3,100 -49 Descending Minneapolis Center
Sat 12:10:56 PM 45.1333 -87.2997 94° East 143 165 3,100 -194 Level Minneapolis Center
Sat 12:11:58 PM 45.1300 -87.2436 95° East 143 165 2,700 -581 Descending Minneapolis Center
Sat 12:13:00 PM 45.1253 -87.1983 98° East 133 153 1,900 -435 Descending Minneapolis Center
Sat 12:14:02 PM 45.1100 -87.1617 121° Southeast 129 148 1,800 -97 Descending Minneapolis Center

Login

Don't have an account? Register now (free) for customized features, flight alerts, and more!